Time;durP1;ratioP1;P1;durP2;ratioP2;P2;SDS_P1;SDS_P2;PMS_P1;PMS_P2;Temp;Humidity;BMP_temperature;BMP_pressure;BME280_temperature;BME280_humidity;BME280_pressure;Samples;Min_cycle;Max_cycle;Signal;HPM_P1;HPM_P2
2020/02/12 00:00:07;;;;;;;2.4;1.6;;;;;;;2.5;93.53418;95079.72;;;;
2020/02/12 00:01:25;;;;;;;2.4;1.6;;;;;;;2.5;93.53418;95079.72;;;;
2020/02/12 00:03:58;;;;;;;2.4;1.6;;;;;;;2.5;93.53418;95079.72;;;;
2020/02/12 00:04:59;;;;;;;2.4;1.6;;;;;;;2.5;93.53418;95079.72;;;;
2020/02/12 00:06:15;;;;;;;2.4;1.6;;;;;;;2.5;93.53418;95079.72;;;;
2020/02/12 00:07:16;;;;;;;2.4;1.6;;;;;;;2.5;93.53418;95079.72;;;;
2020/02/12 00:08:19;;;;;;;2.4;1.6;;;;;;;2.5;93.53418;95079.72;;;;
2020/02/12 00:09:25;;;;;;;3.1;1.2;;;;;;;2.57;92.2334;95082.35;;;;
2020/02/12 00:11:06;;;;;;;3.1;1.2;;;;;;;2.57;92.2334;95082.35;;;;
2020/02/12 00:12:14;;;;;;;3.1;1.2;;;;;;;2.57;92.2334;95082.35;;;;
2020/02/12 00:13:30;;;;;;;3.1;1.2;;;;;;;2.57;92.2334;95082.35;;;;
2020/02/12 00:15:27;;;;;;;3.1;1.2;;;;;;;2.57;92.2334;95082.35;;;;
2020/02/12 00:16:35;;;;;;;3.1;1.2;;;;;;;2.57;92.2334;95082.35;;;;
2020/02/12 00:17:43;;;;;;;3.1;1.2;;;;;;;2.57;92.2334;95082.35;;;;
2020/02/12 00:18:43;;;;;;;3.1;1.2;;;;;;;2.57;92.2334;95082.35;;;;
2020/02/12 00:20:51;;;;;;;2.5;1.2;;;;;;;2.61;91.56445;95092.5;;;;
2020/02/12 00:27:00;;;;;;;2.5;1.2;;;;;;;2.61;91.56445;95092.5;;;;
2020/02/12 00:28:42;;;;;;;2.5;1.2;;;;;;;2.61;91.56445;95092.5;;;;
2020/02/12 00:29:53;;;;;;;2.5;1.2;;;;;;;2.61;91.56445;95092.5;;;;
2020/02/12 00:31:02;;;;;;;1.4;1.1;;;;;;;2.52;91.13672;95090.48;;;;
2020/02/12 00:32:12;;;;;;;1.4;1.1;;;;;;;2.52;91.13672;95090.48;;;;
2020/02/12 00:33:24;;;;;;;1.4;1.1;;;;;;;2.52;91.13672;95090.48;;;;
2020/02/12 00:34:33;;;;;;;1.4;1.1;;;;;;;2.52;91.13672;95090.48;;;;
2020/02/12 00:35:46;;;;;;;1.4;1.1;;;;;;;2.52;91.13672;95090.48;;;;
2020/02/12 00:37:02;;;;;;;1.4;1.1;;;;;;;2.52;91.13672;95090.48;;;;
2020/02/12 00:38:23;;;;;;;1.4;1.1;;;;;;;2.52;91.13672;95090.48;;;;
2020/02/12 00:39:51;;;;;;;1.4;1.1;;;;;;;2.52;91.13672;95090.48;;;;
2020/02/12 00:41:01;;;;;;;1.9;1.2;;;;;;;2.3;92.14258;95076.97;;;;
2020/02/12 00:42:15;;;;;;;1.9;1.2;;;;;;;2.3;92.14258;95076.97;;;;
2020/02/12 00:43:24;;;;;;;1.9;1.2;;;;;;;2.3;92.14258;95076.97;;;;
2020/02/12 00:45:36;;;;;;;1.9;1.2;;;;;;;2.3;92.14258;95076.97;;;;
2020/02/12 00:47:49;;;;;;;1.9;1.2;;;;;;;2.3;92.14258;95076.97;;;;
2020/02/12 00:48:57;;;;;;;1.9;1.2;;;;;;;2.3;92.14258;95076.97;;;;
2020/02/12 00:50:03;;;;;;;1.9;1.2;;;;;;;2.3;92.14258;95076.97;;;;
2020/02/12 00:51:14;;;;;;;1.9;1.2;;;;;;;2.3;92.14258;95076.97;;;;
2020/02/12 00:52:24;;;;;;;2.6;1.6;;;;;;;2.2;92.98926;95080.84;;;;
2020/02/12 00:54:54;;;;;;;2.6;1.6;;;;;;;2.2;92.98926;95080.84;;;;
2020/02/12 00:56:05;;;;;;;2.6;1.6;;;;;;;2.2;92.98926;95080.84;;;;
2020/02/12 00:57:13;;;;;;;2.6;1.6;;;;;;;2.2;92.98926;95080.84;;;;
2020/02/12 00:58:24;;;;;;;2.6;1.6;;;;;;;2.2;92.98926;95080.84;;;;
2020/02/12 00:59:32;;;;;;;2.6;1.6;;;;;;;2.2;92.98926;95080.84;;;;
2020/02/12 01:00:44;;;;;;;2.6;1.6;;;;;;;2.2;92.98926;95080.84;;;;
2020/02/12 01:03:01;;;;;;;2.6;1.6;;;;;;;2.2;92.98926;95080.84;;;;
2020/02/12 01:09:18;;;;;;;3.7;1.8;;;;;;;1.94;94.17285;95086.33;;;;
2020/02/12 01:15:40;;;;;;;3.600001;1.6;;;;;;;1.6;95.19336;95080.7;;;;
2020/02/12 01:29:05;;;;;;;3.15;1.3;;;;;;;1.46;95.95117;95080.33;;;;
2020/02/12 01:38:28;;;;;;;3.3;1.55;;;;;;;1.31;96.16992;95083.92;;;;
2020/02/12 01:47:59;;;;;;;2.85;1.3;;;;;;;1.43;96.55078;95085.92;;;;
2020/02/12 01:57:34;;;;;;;2.85;1.2;;;;;;;1.42;96.35059;95089.15;;;;
2020/02/12 02:07:06;;;;;;;2.8;1.2;;;;;;;1.51;96.28613;95082.73;;;;
2020/02/12 02:16:46;;;;;;;3.2;1.5;;;;;;;1.58;95.80371;95084.05;;;;
2020/02/12 02:26:10;;;;;;;3.2;1.5;;;;;;;1.58;95.80371;95084.05;;;;
2020/02/12 02:31:29;;;;;;;4.6;1.4;;;;;;;1.68;95.30371;95084.68;;;;
2020/02/12 02:32:36;;;;;;;4.6;1.4;;;;;;;1.68;95.30371;95084.68;;;;
2020/02/12 02:33:36;;;;;;;4.6;1.4;;;;;;;1.68;95.30371;95084.68;;;;
2020/02/12 02:34:37;;;;;;;4.6;1.4;;;;;;;1.68;95.30371;95084.68;;;;
2020/02/12 02:35:38;;;;;;;4.6;1.4;;;;;;;1.68;95.30371;95084.68;;;;
2020/02/12 02:36:40;;;;;;;4.6;1.4;;;;;;;1.68;95.30371;95084.68;;;;
2020/02/12 02:37:41;;;;;;;2.75;1.35;;;;;;;1.61;94.91504;95075.3;;;;
2020/02/12 02:38:45;;;;;;;2.75;1.35;;;;;;;1.61;94.91504;95075.3;;;;
2020/02/12 02:39:45;;;;;;;2.75;1.35;;;;;;;1.61;94.91504;95075.3;;;;
2020/02/12 02:40:46;;;;;;;2.75;1.35;;;;;;;1.61;94.91504;95075.3;;;;
2020/02/12 02:41:46;;;;;;;2.75;1.35;;;;;;;1.61;94.91504;95075.3;;;;
2020/02/12 02:42:47;;;;;;;2.75;1.35;;;;;;;1.61;94.91504;95075.3;;;;
2020/02/12 02:43:48;;;;;;;2.75;1.35;;;;;;;1.61;94.91504;95075.3;;;;
2020/02/12 02:44:56;;;;;;;2.75;1.35;;;;;;;1.61;94.91504;95075.3;;;;
2020/02/12 02:45:56;;;;;;;2.75;1.35;;;;;;;1.61;94.91504;95075.3;;;;
2020/02/12 02:46:57;;;;;;;2.75;1.35;;;;;;;1.61;94.91504;95075.3;;;;
2020/02/12 02:47:58;;;;;;;2.75;1.35;;;;;;;1.61;94.91504;95075.3;;;;
2020/02/12 02:48:58;;;;;;;2.75;1.35;;;;;;;1.61;94.91504;95075.3;;;;
2020/02/12 02:49:59;;;;;;;2.75;1.35;;;;;;;1.61;94.91504;95075.3;;;;
2020/02/12 02:50:59;;;;;;;2.75;1.35;;;;;;;1.61;94.91504;95075.3;;;;
2020/02/12 02:52:00;;;;;;;2.75;1.35;;;;;;;1.61;94.91504;95075.3;;;;
2020/02/12 02:53:02;;;;;;;2.75;1.35;;;;;;;1.61;94.91504;95075.3;;;;
2020/02/12 02:54:05;;;;;;;2.75;1.35;;;;;;;1.61;94.91504;95075.3;;;;
2020/02/12 02:55:05;;;;;;;2.75;1.35;;;;;;;1.61;94.91504;95075.3;;;;
2020/02/12 02:56:06;;;;;;;2.75;1.35;;;;;;;1.61;94.91504;95075.3;;;;
2020/02/12 02:57:06;;;;;;;2.75;1.35;;;;;;;1.61;94.91504;95075.3;;;;
2020/02/12 02:58:08;;;;;;;2.75;1.35;;;;;;;1.61;94.91504;95075.3;;;;
2020/02/12 02:59:08;;;;;;;4;1.55;;;;;;;1.7;94.0791;95105.28;;;;
2020/02/12 03:00:09;;;;;;;4;1.55;;;;;;;1.7;94.0791;95105.28;;;;
2020/02/12 03:01:12;;;;;;;4;1.55;;;;;;;1.7;94.0791;95105.28;;;;
2020/02/12 03:02:21;;;;;;;4;1.55;;;;;;;1.7;94.0791;95105.28;;;;
2020/02/12 03:03:21;;;;;;;4;1.55;;;;;;;1.7;94.0791;95105.28;;;;
2020/02/12 03:04:22;;;;;;;4;1.55;;;;;;;1.7;94.0791;95105.28;;;;
2020/02/12 03:05:22;;;;;;;4;1.55;;;;;;;1.7;94.0791;95105.28;;;;
2020/02/12 03:06:23;;;;;;;4;1.55;;;;;;;1.7;94.0791;95105.28;;;;
2020/02/12 03:07:24;;;;;;;4;1.55;;;;;;;1.7;94.0791;95105.28;;;;
2020/02/12 03:08:26;;;;;;;4;1.55;;;;;;;1.7;94.0791;95105.28;;;;
2020/02/12 03:09:26;;;;;;;4;1.55;;;;;;;1.7;94.0791;95105.28;;;;
2020/02/12 03:10:27;;;;;;;2.6;1.1;;;;;;;1.8;94.29785;95109.41;;;;
2020/02/12 03:11:43;;;;;;;2.6;1.1;;;;;;;1.8;94.29785;95109.41;;;;
2020/02/12 03:12:46;;;;;;;2.6;1.1;;;;;;;1.8;94.29785;95109.41;;;;
2020/02/12 03:13:48;;;;;;;2.6;1.1;;;;;;;1.8;94.29785;95109.41;;;;
2020/02/12 03:14:48;;;;;;;2.6;1.1;;;;;;;1.8;94.29785;95109.41;;;;
2020/02/12 03:15:49;;;;;;;2.6;1.1;;;;;;;1.8;94.29785;95109.41;;;;
2020/02/12 03:16:50;;;;;;;2.6;1.1;;;;;;;1.8;94.29785;95109.41;;;;
2020/02/12 03:17:53;;;;;;;2.6;1.1;;;;;;;1.8;94.29785;95109.41;;;;
2020/02/12 03:19:00;;;;;;;2.6;1.1;;;;;;;1.8;94.29785;95109.41;;;;
2020/02/12 03:20:09;;;;;;;2.6;1.1;;;;;;;1.8;94.29785;95109.41;;;;
2020/02/12 03:21:51;;;;;;;3;1.35;;;;;;;1.99;93.72656;95100.31;;;;
2020/02/12 03:22:58;;;;;;;3;1.35;;;;;;;1.99;93.72656;95100.31;;;;
2020/02/12 03:24:05;;;;;;;3;1.35;;;;;;;1.99;93.72656;95100.31;;;;
2020/02/12 03:25:11;;;;;;;3;1.35;;;;;;;1.99;93.72656;95100.31;;;;
2020/02/12 03:31:34;;;;;;;2.5;1.3;;;;;;;2.21;93.2832;95113.95;;;;
2020/02/12 03:33:48;;;;;;;2.5;1.3;;;;;;;2.21;93.2832;95113.95;;;;
2020/02/12 03:34:58;;;;;;;2.5;1.3;;;;;;;2.21;93.2832;95113.95;;;;
2020/02/12 03:36:21;;;;;;;2.5;1.3;;;;;;;2.21;93.2832;95113.95;;;;
2020/02/12 03:37:28;;;;;;;2.5;1.3;;;;;;;2.21;93.2832;95113.95;;;;
2020/02/12 03:38:41;;;;;;;2.5;1.3;;;;;;;2.21;93.2832;95113.95;;;;
2020/02/12 03:39:48;;;;;;;2.5;1.3;;;;;;;2.21;93.2832;95113.95;;;;
2020/02/12 03:40:55;;;;;;;2.5;1.3;;;;;;;2.21;93.2832;95113.95;;;;
2020/02/12 03:42:06;;;;;;;3.2;1.4;;;;;;;2.25;92.68652;95115.34;;;;
2020/02/12 03:43:26;;;;;;;3.2;1.4;;;;;;;2.25;92.68652;95115.34;;;;
2020/02/12 03:49:50;;;;;;;3.2;1.4;;;;;;;2.25;92.68652;95115.34;;;;
2020/02/12 03:51:17;;;;;;;3.2;1.4;;;;;;;2.25;92.68652;95115.34;;;;
2020/02/12 03:52:29;;;;;;;4.05;1.45;;;;;;;2.26;92.4375;95123.63;;;;
2020/02/12 03:53:43;;;;;;;4.05;1.45;;;;;;;2.26;92.4375;95123.63;;;;
2020/02/12 03:54:56;;;;;;;4.05;1.45;;;;;;;2.26;92.4375;95123.63;;;;
2020/02/12 03:56:21;;;;;;;4.05;1.45;;;;;;;2.26;92.4375;95123.63;;;;
2020/02/12 03:57:32;;;;;;;4.05;1.45;;;;;;;2.26;92.4375;95123.63;;;;
2020/02/12 03:58:43;;;;;;;4.05;1.45;;;;;;;2.26;92.4375;95123.63;;;;
2020/02/12 03:59:51;;;;;;;4.05;1.45;;;;;;;2.26;92.4375;95123.63;;;;
2020/02/12 04:00:59;;;;;;;4.05;1.45;;;;;;;2.26;92.4375;95123.63;;;;
2020/02/12 04:02:08;;;;;;;4.05;1.45;;;;;;;2.26;92.4375;95123.63;;;;
2020/02/12 04:03:18;;;;;;;3.8;1.4;;;;;;;2.12;92.22949;95137.33;;;;
2020/02/12 04:04:25;;;;;;;3.8;1.4;;;;;;;2.12;92.22949;95137.33;;;;
2020/02/12 04:05:34;;;;;;;3.8;1.4;;;;;;;2.12;92.22949;95137.33;;;;
2020/02/12 04:06:48;;;;;;;3.8;1.4;;;;;;;2.12;92.22949;95137.33;;;;
2020/02/12 04:08:00;;;;;;;3.8;1.4;;;;;;;2.12;92.22949;95137.33;;;;
2020/02/12 04:09:09;;;;;;;3.8;1.4;;;;;;;2.12;92.22949;95137.33;;;;
2020/02/12 04:10:23;;;;;;;3.8;1.4;;;;;;;2.12;92.22949;95137.33;;;;
2020/02/12 04:11:32;;;;;;;3.8;1.4;;;;;;;2.12;92.22949;95137.33;;;;
2020/02/12 04:13:46;;;;;;;3.8;1.4;;;;;;;2.12;92.22949;95137.33;;;;
2020/02/12 04:14:55;;;;;;;2.5;1.35;;;;;;;2.03;92.40137;95133.92;;;;
2020/02/12 04:16:05;;;;;;;2.5;1.35;;;;;;;2.03;92.40137;95133.92;;;;
2020/02/12 04:17:15;;;;;;;2.5;1.35;;;;;;;2.03;92.40137;95133.92;;;;
2020/02/12 04:22:52;;;;;;;2.5;1.35;;;;;;;2.03;92.40137;95133.92;;;;
2020/02/12 04:24:15;;;;;;;2.5;1.35;;;;;;;2.03;92.40137;95133.92;;;;
2020/02/12 04:25:27;;;;;;;3.900001;1.65;;;;;;;1.86;92.55078;95160.46;;;;
2020/02/12 04:26:38;;;;;;;3.900001;1.65;;;;;;;1.86;92.55078;95160.46;;;;
2020/02/12 04:27:46;;;;;;;3.900001;1.65;;;;;;;1.86;92.55078;95160.46;;;;
2020/02/12 04:34:08;;;;;;;3.900001;1.65;;;;;;;1.86;92.55078;95160.46;;;;
2020/02/12 04:35:14;;;;;;;3.05;1.25;;;;;;;1.84;92.70313;95139.43;;;;
2020/02/12 04:36:25;;;;;;;3.05;1.25;;;;;;;1.84;92.70313;95139.43;;;;
2020/02/12 04:37:40;;;;;;;3.05;1.25;;;;;;;1.84;92.70313;95139.43;;;;
2020/02/12 04:38:52;;;;;;;3.05;1.25;;;;;;;1.84;92.70313;95139.43;;;;
2020/02/12 04:40:02;;;;;;;3.05;1.25;;;;;;;1.84;92.70313;95139.43;;;;
2020/02/12 04:41:10;;;;;;;3.05;1.25;;;;;;;1.84;92.70313;95139.43;;;;
2020/02/12 04:47:48;;;;;;;2.25;1.3;;;;;;;1.75;92.79688;95140.97;;;;
2020/02/12 04:48:58;;;;;;;2.25;1.3;;;;;;;1.75;92.79688;95140.97;;;;
2020/02/12 04:50:08;;;;;;;2.25;1.3;;;;;;;1.75;92.79688;95140.97;;;;
2020/02/12 04:51:19;;;;;;;2.25;1.3;;;;;;;1.75;92.79688;95140.97;;;;
2020/02/12 04:52:30;;;;;;;2.25;1.3;;;;;;;1.75;92.79688;95140.97;;;;
2020/02/12 04:53:38;;;;;;;2.25;1.3;;;;;;;1.75;92.79688;95140.97;;;;
2020/02/12 05:00:07;;;;;;;2.55;1.3;;;;;;;1.64;93.06641;95149;;;;
2020/02/12 05:01:16;;;;;;;2.55;1.3;;;;;;;1.64;93.06641;95149;;;;
2020/02/12 05:02:55;;;;;;;2.55;1.3;;;;;;;1.64;93.06641;95149;;;;
2020/02/12 05:04:03;;;;;;;2.55;1.3;;;;;;;1.64;93.06641;95149;;;;
2020/02/12 05:05:51;;;;;;;2.55;1.3;;;;;;;1.64;93.06641;95149;;;;
2020/02/12 05:06:59;;;;;;;3.45;1.6;;;;;;;1.48;93.40723;95166.91;;;;
2020/02/12 05:08:11;;;;;;;3.45;1.6;;;;;;;1.48;93.40723;95166.91;;;;
2020/02/12 05:09:22;;;;;;;3.45;1.6;;;;;;;1.48;93.40723;95166.91;;;;
2020/02/12 05:10:34;;;;;;;3.45;1.6;;;;;;;1.48;93.40723;95166.91;;;;
2020/02/12 05:11:42;;;;;;;3.45;1.6;;;;;;;1.48;93.40723;95166.91;;;;
2020/02/12 05:13:55;;;;;;;3.45;1.6;;;;;;;1.48;93.40723;95166.91;;;;
2020/02/12 05:16:09;;;;;;;3.45;1.6;;;;;;;1.48;93.40723;95166.91;;;;
2020/02/12 05:17:18;;;;;;;2.35;1.35;;;;;;;1.47;93.75879;95163.1;;;;
2020/02/12 05:23:41;;;;;;;2.35;1.35;;;;;;;1.47;93.75879;95163.1;;;;
2020/02/12 05:24:46;;;;;;;2.35;1.35;;;;;;;1.47;93.75879;95163.1;;;;
2020/02/12 05:31:22;;;;;;;4;1.5;;;;;;;1.43;94.08203;95162.64;;;;
2020/02/12 05:32:29;;;;;;;4;1.5;;;;;;;1.43;94.08203;95162.64;;;;
2020/02/12 05:33:40;;;;;;;4;1.5;;;;;;;1.43;94.08203;95162.64;;;;
2020/02/12 05:34:47;;;;;;;4;1.5;;;;;;;1.43;94.08203;95162.64;;;;
2020/02/12 05:36:01;;;;;;;4;1.5;;;;;;;1.43;94.08203;95162.64;;;;
2020/02/12 05:37:16;;;;;;;4;1.5;;;;;;;1.43;94.08203;95162.64;;;;
2020/02/12 05:38:25;;;;;;;2.95;1.4;;;;;;;1.51;94.11133;95167.47;;;;
2020/02/12 05:39:32;;;;;;;2.95;1.4;;;;;;;1.51;94.11133;95167.47;;;;
2020/02/12 05:45:55;;;;;;;2.95;1.4;;;;;;;1.51;94.11133;95167.47;;;;
2020/02/12 05:47:09;;;;;;;2.95;1.4;;;;;;;1.51;94.11133;95167.47;;;;
2020/02/12 05:48:25;;;;;;;2.95;1.4;;;;;;;1.51;94.11133;95167.47;;;;
2020/02/12 05:54:44;;;;;;;3.35;1.55;;;;;;;1.37;94.22559;95180.66;;;;
2020/02/12 05:56:00;;;;;;;3.35;1.55;;;;;;;1.37;94.22559;95180.66;;;;
2020/02/12 05:57:07;;;;;;;3.35;1.55;;;;;;;1.37;94.22559;95180.66;;;;
2020/02/12 05:58:17;;;;;;;3.35;1.55;;;;;;;1.37;94.22559;95180.66;;;;
2020/02/12 05:59:24;;;;;;;3.35;1.55;;;;;;;1.37;94.22559;95180.66;;;;
2020/02/12 06:00:33;;;;;;;1.95;1.5;;;;;;;1.42;94.70605;95191.97;;;;
2020/02/12 06:01:47;;;;;;;1.95;1.5;;;;;;;1.42;94.70605;95191.97;;;;
2020/02/12 06:02:57;;;;;;;1.95;1.5;;;;;;;1.42;94.70605;95191.97;;;;
2020/02/12 06:09:15;;;;;;;1.95;1.5;;;;;;;1.42;94.70605;95191.97;;;;
2020/02/12 06:10:26;;;;;;;3.7;1.5;;;;;;;1.68;94.91895;95203.92;;;;
2020/02/12 06:11:34;;;;;;;3.7;1.5;;;;;;;1.68;94.91895;95203.92;;;;
2020/02/12 06:12:41;;;;;;;3.7;1.5;;;;;;;1.68;94.91895;95203.92;;;;
2020/02/12 06:13:56;;;;;;;3.7;1.5;;;;;;;1.68;94.91895;95203.92;;;;
2020/02/12 06:15:04;;;;;;;3.7;1.5;;;;;;;1.68;94.91895;95203.92;;;;
2020/02/12 06:16:15;;;;;;;3.7;1.5;;;;;;;1.68;94.91895;95203.92;;;;
2020/02/12 06:17:30;;;;;;;3.7;1.5;;;;;;;1.68;94.91895;95203.92;;;;
2020/02/12 06:18:37;;;;;;;3.7;1.5;;;;;;;1.68;94.91895;95203.92;;;;
2020/02/12 06:19:48;;;;;;;3.7;1.5;;;;;;;1.68;94.91895;95203.92;;;;
2020/02/12 06:21:26;;;;;;;3.2;1.7;;;;;;;1.88;94.82715;95217.08;;;;
2020/02/12 06:22:39;;;;;;;3.2;1.7;;;;;;;1.88;94.82715;95217.08;;;;
2020/02/12 06:23:52;;;;;;;3.2;1.7;;;;;;;1.88;94.82715;95217.08;;;;
2020/02/12 06:25:07;;;;;;;3.2;1.7;;;;;;;1.88;94.82715;95217.08;;;;
2020/02/12 06:26:18;;;;;;;3.2;1.7;;;;;;;1.88;94.82715;95217.08;;;;
2020/02/12 06:27:34;;;;;;;3.2;1.7;;;;;;;1.88;94.82715;95217.08;;;;
2020/02/12 06:34:00;;;;;;;3.05;1.7;;;;;;;1.94;94.7666;95236.32;;;;
2020/02/12 06:35:07;;;;;;;3.05;1.7;;;;;;;1.94;94.7666;95236.32;;;;
2020/02/12 06:36:24;;;;;;;3.05;1.7;;;;;;;1.94;94.7666;95236.32;;;;
2020/02/12 06:37:35;;;;;;;3.05;1.7;;;;;;;1.94;94.7666;95236.32;;;;
2020/02/12 06:44:00;;;;;;;4.099999;1.7;;;;;;;2.17;94.86035;95224.13;;;;
2020/02/12 06:45:40;;;;;;;4.099999;1.7;;;;;;;2.17;94.86035;95224.13;;;;
2020/02/12 06:46:48;;;;;;;4.099999;1.7;;;;;;;2.17;94.86035;95224.13;;;;
2020/02/12 06:48:05;;;;;;;4.099999;1.7;;;;;;;2.17;94.86035;95224.13;;;;
2020/02/12 06:49:32;;;;;;;4.099999;1.7;;;;;;;2.17;94.86035;95224.13;;;;
2020/02/12 06:50:40;;;;;;;4.099999;1.7;;;;;;;2.17;94.86035;95224.13;;;;
2020/02/12 06:56:59;;;;;;;5;1.7;;;;;;;2.4;94.50293;95236.39;;;;
2020/02/12 06:58:08;;;;;;;5;1.7;;;;;;;2.4;94.50293;95236.39;;;;
2020/02/12 06:59:21;;;;;;;5;1.7;;;;;;;2.4;94.50293;95236.39;;;;
2020/02/12 07:01:35;;;;;;;5;1.7;;;;;;;2.4;94.50293;95236.39;;;;
2020/02/12 07:03:18;;;;;;;5;1.7;;;;;;;2.4;94.50293;95236.39;;;;
2020/02/12 07:04:35;;;;;;;5.400001;1.75;;;;;;;2.67;93.97852;95248.58;;;;
2020/02/12 07:05:42;;;;;;;5.400001;1.75;;;;;;;2.67;93.97852;95248.58;;;;
2020/02/12 07:07:22;;;;;;;5.400001;1.75;;;;;;;2.67;93.97852;95248.58;;;;
2020/02/12 07:09:36;;;;;;;5.400001;1.75;;;;;;;2.67;93.97852;95248.58;;;;
2020/02/12 07:10:51;;;;;;;5.400001;1.75;;;;;;;2.67;93.97852;95248.58;;;;
2020/02/12 07:18:15;;;;;;;5.4;2.2;;;;;;;2.82;92.94629;95257.78;;;;
2020/02/12 07:19:20;;;;;;;5.4;2.2;;;;;;;2.82;92.94629;95257.78;;;;
2020/02/12 07:20:59;;;;;;;5.4;2.2;;;;;;;2.82;92.94629;95257.78;;;;
2020/02/12 07:27:28;;;;;;;3.5;1.55;;;;;;;2.99;92.37402;95278.34;;;;
2020/02/12 07:28:43;;;;;;;3.5;1.55;;;;;;;2.99;92.37402;95278.34;;;;
2020/02/12 07:36:05;;;;;;;3.5;1.55;;;;;;;2.99;92.37402;95278.34;;;;
2020/02/12 07:37:10;;;;;;;3.3;1.3;;;;;;;3.12;91.23242;95307.32;;;;
2020/02/12 07:38:10;;;;;;;3.3;1.3;;;;;;;3.12;91.23242;95307.32;;;;
2020/02/12 07:39:12;;;;;;;3.3;1.3;;;;;;;3.12;91.23242;95307.32;;;;
2020/02/12 07:40:12;;;;;;;3.3;1.3;;;;;;;3.12;91.23242;95307.32;;;;
2020/02/12 07:41:13;;;;;;;3.3;1.3;;;;;;;3.12;91.23242;95307.32;;;;
2020/02/12 07:42:13;;;;;;;3.3;1.3;;;;;;;3.12;91.23242;95307.32;;;;
2020/02/12 07:43:13;;;;;;;3.3;1.3;;;;;;;3.12;91.23242;95307.32;;;;
2020/02/12 07:44:14;;;;;;;3.3;1.3;;;;;;;3.12;91.23242;95307.32;;;;
2020/02/12 07:45:14;;;;;;;3.3;1.3;;;;;;;3.12;91.23242;95307.32;;;;
2020/02/12 07:46:15;;;;;;;5.1;1.9;;;;;;;3.38;90.66895;95306.34;;;;
2020/02/12 07:47:15;;;;;;;5.1;1.9;;;;;;;3.38;90.66895;95306.34;;;;
2020/02/12 07:48:16;;;;;;;5.1;1.9;;;;;;;3.38;90.66895;95306.34;;;;
2020/02/12 07:49:16;;;;;;;5.1;1.9;;;;;;;3.38;90.66895;95306.34;;;;
2020/02/12 07:50:17;;;;;;;5.1;1.9;;;;;;;3.38;90.66895;95306.34;;;;
2020/02/12 07:51:17;;;;;;;5.1;1.9;;;;;;;3.38;90.66895;95306.34;;;;
2020/02/12 07:52:18;;;;;;;5.1;1.9;;;;;;;3.38;90.66895;95306.34;;;;
2020/02/12 07:53:18;;;;;;;5.1;1.9;;;;;;;3.38;90.66895;95306.34;;;;
2020/02/12 07:54:19;;;;;;;5.1;1.9;;;;;;;3.38;90.66895;95306.34;;;;
2020/02/12 07:55:19;;;;;;;5.1;1.9;;;;;;;3.38;90.66895;95306.34;;;;
2020/02/12 07:56:20;;;;;;;4.25;1.6;;;;;;;3.62;89.42969;95308.59;;;;
2020/02/12 07:57:20;;;;;;;4.25;1.6;;;;;;;3.62;89.42969;95308.59;;;;
2020/02/12 07:58:21;;;;;;;4.25;1.6;;;;;;;3.62;89.42969;95308.59;;;;
2020/02/12 07:59:21;;;;;;;4.25;1.6;;;;;;;3.62;89.42969;95308.59;;;;
2020/02/12 08:00:22;;;;;;;4.25;1.6;;;;;;;3.62;89.42969;95308.59;;;;
2020/02/12 08:01:22;;;;;;;4.25;1.6;;;;;;;3.62;89.42969;95308.59;;;;
2020/02/12 08:02:23;;;;;;;4.25;1.6;;;;;;;3.62;89.42969;95308.59;;;;
2020/02/12 08:03:23;;;;;;;4.25;1.6;;;;;;;3.62;89.42969;95308.59;;;;
2020/02/12 08:04:24;;;;;;;4.25;1.6;;;;;;;3.62;89.42969;95308.59;;;;
2020/02/12 08:05:24;;;;;;;4.25;1.6;;;;;;;3.62;89.42969;95308.59;;;;
2020/02/12 08:06:25;;;;;;;4.25;1.6;;;;;;;3.62;89.42969;95308.59;;;;
2020/02/12 08:07:25;;;;;;;5.099999;1.95;;;;;;;3.89;87.6084;95319.3;;;;
2020/02/12 08:08:26;;;;;;;5.099999;1.95;;;;;;;3.89;87.6084;95319.3;;;;
2020/02/12 08:09:26;;;;;;;5.099999;1.95;;;;;;;3.89;87.6084;95319.3;;;;
2020/02/12 08:10:27;;;;;;;5.099999;1.95;;;;;;;3.89;87.6084;95319.3;;;;
2020/02/12 08:11:27;;;;;;;5.099999;1.95;;;;;;;3.89;87.6084;95319.3;;;;
2020/02/12 08:12:28;;;;;;;5.099999;1.95;;;;;;;3.89;87.6084;95319.3;;;;
2020/02/12 08:13:28;;;;;;;5.099999;1.95;;;;;;;3.89;87.6084;95319.3;;;;
2020/02/12 08:14:28;;;;;;;5.099999;1.95;;;;;;;3.89;87.6084;95319.3;;;;
2020/02/12 08:15:29;;;;;;;5.099999;1.95;;;;;;;3.89;87.6084;95319.3;;;;
2020/02/12 08:16:30;;;;;;;5.099999;1.95;;;;;;;3.89;87.6084;95319.3;;;;
2020/02/12 08:17:30;;;;;;;5.45;1.9;;;;;;;4.03;86.53711;95315.7;;;;
2020/02/12 08:18:31;;;;;;;5.45;1.9;;;;;;;4.03;86.53711;95315.7;;;;
2020/02/12 08:19:31;;;;;;;5.45;1.9;;;;;;;4.03;86.53711;95315.7;;;;
2020/02/12 08:20:32;;;;;;;5.45;1.9;;;;;;;4.03;86.53711;95315.7;;;;
2020/02/12 08:21:32;;;;;;;5.45;1.9;;;;;;;4.03;86.53711;95315.7;;;;
2020/02/12 08:22:33;;;;;;;5.45;1.9;;;;;;;4.03;86.53711;95315.7;;;;
2020/02/12 08:23:33;;;;;;;5.45;1.9;;;;;;;4.03;86.53711;95315.7;;;;
2020/02/12 08:24:34;;;;;;;5.45;1.9;;;;;;;4.03;86.53711;95315.7;;;;
2020/02/12 08:25:34;;;;;;;5.45;1.9;;;;;;;4.03;86.53711;95315.7;;;;
2020/02/12 08:26:34;;;;;;;5.45;1.9;;;;;;;4.03;86.53711;95315.7;;;;
2020/02/12 08:27:35;;;;;;;5.45;1.9;;;;;;;4.03;86.53711;95315.7;;;;
2020/02/12 08:28:35;;;;;;;4.199999;1.85;;;;;;;4.19;86.12598;95337.69;;;;
2020/02/12 08:29:36;;;;;;;4.199999;1.85;;;;;;;4.19;86.12598;95337.69;;;;
2020/02/12 08:30:36;;;;;;;4.199999;1.85;;;;;;;4.19;86.12598;95337.69;;;;
2020/02/12 08:31:37;;;;;;;4.199999;1.85;;;;;;;4.19;86.12598;95337.69;;;;
2020/02/12 08:32:37;;;;;;;4.199999;1.85;;;;;;;4.19;86.12598;95337.69;;;;
2020/02/12 08:33:38;;;;;;;4.199999;1.85;;;;;;;4.19;86.12598;95337.69;;;;
2020/02/12 08:34:38;;;;;;;4.199999;1.85;;;;;;;4.19;86.12598;95337.69;;;;
2020/02/12 08:35:39;;;;;;;4.199999;1.85;;;;;;;4.19;86.12598;95337.69;;;;
2020/02/12 08:36:39;;;;;;;4.199999;1.85;;;;;;;4.19;86.12598;95337.69;;;;
2020/02/12 08:37:40;;;;;;;4.199999;1.85;;;;;;;4.19;86.12598;95337.69;;;;
2020/02/12 08:38:40;;;;;;;4.199999;1.85;;;;;;;4.19;86.12598;95337.69;;;;
2020/02/12 08:39:40;;;;;;;5.300001;1.9;;;;;;;4.26;85.2168;95318.92;;;;
2020/02/12 08:40:41;;;;;;;5.300001;1.9;;;;;;;4.26;85.2168;95318.92;;;;
2020/02/12 08:41:41;;;;;;;5.300001;1.9;;;;;;;4.26;85.2168;95318.92;;;;
2020/02/12 08:42:42;;;;;;;5.300001;1.9;;;;;;;4.26;85.2168;95318.92;;;;
2020/02/12 08:43:42;;;;;;;5.300001;1.9;;;;;;;4.26;85.2168;95318.92;;;;
2020/02/12 08:44:43;;;;;;;5.300001;1.9;;;;;;;4.26;85.2168;95318.92;;;;
2020/02/12 08:45:43;;;;;;;5.300001;1.9;;;;;;;4.26;85.2168;95318.92;;;;
2020/02/12 08:46:44;;;;;;;5.300001;1.9;;;;;;;4.26;85.2168;95318.92;;;;
2020/02/12 08:47:44;;;;;;;5.300001;1.9;;;;;;;4.26;85.2168;95318.92;;;;
2020/02/12 08:48:45;;;;;;;5.300001;1.9;;;;;;;4.26;85.2168;95318.92;;;;
2020/02/12 08:49:45;;;;;;;5.3;1.9;;;;;;;4.66;84.17969;95329.32;;;;
2020/02/12 08:50:46;;;;;;;5.3;1.9;;;;;;;4.66;84.17969;95329.32;;;;
2020/02/12 08:51:46;;;;;;;5.3;1.9;;;;;;;4.66;84.17969;95329.32;;;;
2020/02/12 08:52:47;;;;;;;5.3;1.9;;;;;;;4.66;84.17969;95329.32;;;;
2020/02/12 08:53:47;;;;;;;5.3;1.9;;;;;;;4.66;84.17969;95329.32;;;;
2020/02/12 08:54:48;;;;;;;5.3;1.9;;;;;;;4.66;84.17969;95329.32;;;;
2020/02/12 08:55:48;;;;;;;5.3;1.9;;;;;;;4.66;84.17969;95329.32;;;;
2020/02/12 08:56:49;;;;;;;5.3;1.9;;;;;;;4.66;84.17969;95329.32;;;;
2020/02/12 08:57:49;;;;;;;5.3;1.9;;;;;;;4.66;84.17969;95329.32;;;;
2020/02/12 08:58:49;;;;;;;5.3;1.9;;;;;;;4.66;84.17969;95329.32;;;;
2020/02/12 08:59:50;;;;;;;5.3;1.9;;;;;;;4.66;84.17969;95329.32;;;;
2020/02/12 09:00:50;;;;;;;8.449999;4.2;;;;;;;5.16;82.27441;95320.48;;;;
2020/02/12 09:01:51;;;;;;;8.449999;4.2;;;;;;;5.16;82.27441;95320.48;;;;
2020/02/12 09:02:51;;;;;;;8.449999;4.2;;;;;;;5.16;82.27441;95320.48;;;;
2020/02/12 09:03:52;;;;;;;8.449999;4.2;;;;;;;5.16;82.27441;95320.48;;;;
2020/02/12 09:04:52;;;;;;;8.449999;4.2;;;;;;;5.16;82.27441;95320.48;;;;
2020/02/12 09:05:53;;;;;;;8.449999;4.2;;;;;;;5.16;82.27441;95320.48;;;;
2020/02/12 09:06:53;;;;;;;8.449999;4.2;;;;;;;5.16;82.27441;95320.48;;;;
2020/02/12 09:07:54;;;;;;;8.449999;4.2;;;;;;;5.16;82.27441;95320.48;;;;
2020/02/12 09:08:55;;;;;;;8.449999;4.2;;;;;;;5.16;82.27441;95320.48;;;;
2020/02/12 09:09:55;;;;;;;8.449999;4.2;;;;;;;5.16;82.27441;95320.48;;;;
2020/02/12 09:10:55;;;;;;;6.8;1.8;;;;;;;7.32;76.00488;95307.21;;;;
2020/02/12 09:11:56;;;;;;;6.8;1.8;;;;;;;7.32;76.00488;95307.21;;;;
2020/02/12 09:12:56;;;;;;;6.8;1.8;;;;;;;7.32;76.00488;95307.21;;;;
2020/02/12 09:13:57;;;;;;;6.8;1.8;;;;;;;7.32;76.00488;95307.21;;;;
2020/02/12 09:14:58;;;;;;;6.8;1.8;;;;;;;7.32;76.00488;95307.21;;;;
2020/02/12 09:15:58;;;;;;;6.8;1.8;;;;;;;7.32;76.00488;95307.21;;;;
2020/02/12 09:16:58;;;;;;;6.8;1.8;;;;;;;7.32;76.00488;95307.21;;;;
2020/02/12 09:17:59;;;;;;;6.8;1.8;;;;;;;7.32;76.00488;95307.21;;;;
2020/02/12 09:18:59;;;;;;;6.8;1.8;;;;;;;7.32;76.00488;95307.21;;;;
2020/02/12 09:20:00;;;;;;;6.8;1.8;;;;;;;7.32;76.00488;95307.21;;;;
2020/02/12 09:21:00;;;;;;;6.8;1.8;;;;;;;7.32;76.00488;95307.21;;;;
2020/02/12 09:22:01;;;;;;;3.85;1.9;;;;;;;11.12;69.02832;95306.3;;;;
2020/02/12 09:23:01;;;;;;;3.85;1.9;;;;;;;11.12;69.02832;95306.3;;;;
2020/02/12 09:24:02;;;;;;;3.85;1.9;;;;;;;11.12;69.02832;95306.3;;;;
2020/02/12 09:25:02;;;;;;;3.85;1.9;;;;;;;11.12;69.02832;95306.3;;;;
2020/02/12 09:26:03;;;;;;;3.85;1.9;;;;;;;11.12;69.02832;95306.3;;;;
2020/02/12 09:27:03;;;;;;;3.85;1.9;;;;;;;11.12;69.02832;95306.3;;;;
2020/02/12 09:28:04;;;;;;;3.85;1.9;;;;;;;11.12;69.02832;95306.3;;;;
2020/02/12 09:29:04;;;;;;;3.85;1.9;;;;;;;11.12;69.02832;95306.3;;;;
2020/02/12 09:30:05;;;;;;;3.85;1.9;;;;;;;11.12;69.02832;95306.3;;;;
2020/02/12 09:31:06;;;;;;;3.85;1.9;;;;;;;11.12;69.02832;95306.3;;;;
2020/02/12 09:32:07;;;;;;;5.5;1.8;;;;;;;10.83;66.38574;95306.35;;;;
2020/02/12 09:33:08;;;;;;;5.5;1.8;;;;;;;10.83;66.38574;95306.35;;;;
2020/02/12 09:34:08;;;;;;;5.5;1.8;;;;;;;10.83;66.38574;95306.35;;;;
2020/02/12 09:35:09;;;;;;;5.5;1.8;;;;;;;10.83;66.38574;95306.35;;;;
2020/02/12 09:36:09;;;;;;;5.5;1.8;;;;;;;10.83;66.38574;95306.35;;;;
2020/02/12 09:37:10;;;;;;;5.5;1.8;;;;;;;10.83;66.38574;95306.35;;;;